Time;durP1;ratioP1;P1;durP2;ratioP2;P2;SDS_P1;SDS_P2;PMS_P1;PMS_P2;Temp;Humidity;BMP_temperature;BMP_pressure;BME280_temperature;BME280_humidity;BME280_pressure;Samples;Min_cycle;Max_cycle;Signal;HPM_P1;HPM_P2
2022/08/26 00:02:05;;;;;;;7.85;2.13;;;;;;;;;;5007185;28;20386;-43
2022/08/26 00:04:33;;;;;;;6.78;2.10;;;;;;;;;;5020656;28;20114;-42
2022/08/26 00:06:59;;;;;;;7.72;2.00;;;;;;;;;;5015028;28;20438;-40
2022/08/26 00:09:26;;;;;;;8.35;1.95;;;;;;;;;;5001863;28;20037;-41
2022/08/26 00:11:53;;;;;;;7.43;2.10;;;;;;;;;;5012694;28;20057;-41
2022/08/26 00:14:19;;;;;;;8.20;2.05;;;;;;;;;;5003985;28;20037;-42
2022/08/26 00:16:47;;;;;;;6.88;2.33;;;;;;;;;;5013314;28;20608;-41
2022/08/26 00:19:14;;;;;;;9.13;2.00;;;;;;;;;;5027000;28;20063;-41
2022/08/26 00:21:40;;;;;;;8.82;2.08;;;;;;;;;;5009198;28;20044;-47
2022/08/26 00:24:07;;;;;;;8.93;1.93;;;;;;;;;;4976158;28;20411;-41
2022/08/26 00:26:34;;;;;;;7.65;1.70;;;;;;;;;;5013801;28;20116;-43
2022/08/26 00:29:00;;;;;;;7.03;1.60;;;;;;;;;;5015184;28;20491;-41
2022/08/26 00:31:27;;;;;;;6.25;1.95;;;;;;;;;;4995107;28;20037;-41
2022/08/26 00:33:55;;;;;;;7.03;2.15;;;;;;;;;;5011310;28;20045;-41
2022/08/26 00:36:21;;;;;;;6.63;1.77;;;;;;;;;;5009616;28;20034;-42
2022/08/26 00:38:48;;;;;;;7.00;1.58;;;;;;;;;;5002255;28;20029;-41
2022/08/26 00:41:15;;;;;;;8.60;2.30;;;;;;;;;;5014710;28;20041;-44
2022/08/26 00:43:41;;;;;;;7.82;1.85;;;;;;;;;;5021465;28;21244;-44
2022/08/26 00:46:10;;;;;;;9.98;2.17;;;;;;;;;;5016751;28;20037;-41
2022/08/26 00:48:37;;;;;;;5.87;1.67;;;;;;;;;;5011398;28;20542;-42
2022/08/26 00:51:08;;;;;;;6.82;1.38;;;;;;;;;;5020137;28;20048;-41
2022/08/26 00:53:36;;;;;;;6.88;1.80;;;;;;;;;;5008489;28;20050;-43
2022/08/26 00:56:06;;;;;;;8.18;2.15;;;;;;;;;;5014652;28;20065;-45
2022/08/26 00:58:33;;;;;;;5.25;1.95;;;;;;;;;;5011848;28;20474;-41
2022/08/26 01:01:00;;;;;;;6.90;2.03;;;;;;;;;;5014313;28;20060;-40
2022/08/26 01:03:28;;;;;;;6.95;2.10;;;;;;;;;;5009063;28;20111;-42
2022/08/26 01:05:56;;;;;;;7.22;2.40;;;;;;;;;;4994887;28;20458;-41
2022/08/26 01:08:24;;;;;;;6.22;2.10;;;;;;;;;;5012052;28;20549;-41
2022/08/26 01:10:51;;;;;;;10.20;1.98;;;;;;;;;;5010746;28;20033;-44
2022/08/26 01:13:18;;;;;;;7.43;1.67;;;;;;;;;;5012869;28;20683;-41
2022/08/26 01:15:45;;;;;;;5.72;1.95;;;;;;;;;;5008184;28;20076;-44
2022/08/26 01:18:13;;;;;;;9.57;2.28;;;;;;;;;;5013327;28;20068;-41
2022/08/26 01:20:46;;;;;;;10.55;2.80;;;;;;;;;;5008934;28;20030;-43
2022/08/26 01:23:14;;;;;;;8.27;2.10;;;;;;;;;;5006484;28;20513;-41
2022/08/26 01:25:42;;;;;;;5.93;1.80;;;;;;;;;;5011688;28;20485;-43
2022/08/26 01:28:15;;;;;;;7.05;2.25;;;;;;;;;;5007118;28;20033;-43
2022/08/26 01:30:43;;;;;;;6.82;2.38;;;;;;;;;;5009711;28;20046;-42
2022/08/26 01:33:11;;;;;;;8.45;1.80;;;;;;;;;;5022190;28;20482;-41
2022/08/26 01:35:38;;;;;;;5.88;1.85;;;;;;;;;;5015350;28;20120;-41
2022/08/26 01:38:05;;;;;;;7.07;2.10;;;;;;;;;;5003744;28;20048;-43
2022/08/26 01:40:36;;;;;;;6.63;1.70;;;;;;;;;;5000571;28;20088;-41
2022/08/26 01:43:03;;;;;;;7.53;2.60;;;;;;;;;;5009672;28;20119;-42
2022/08/26 01:45:31;;;;;;;7.22;1.95;;;;;;;;;;5007614;28;20053;-43
2022/08/26 01:47:59;;;;;;;11.35;2.60;;;;;;;;;;5015596;28;20037;-43
2022/08/26 01:50:28;;;;;;;7.50;2.00;;;;;;;;;;5011068;28;20053;-43
2022/08/26 01:52:55;;;;;;;8.75;2.20;;;;;;;;;;5006908;28;20042;-44
2022/08/26 01:55:23;;;;;;;6.97;2.38;;;;;;;;;;5008468;28;20176;-46
2022/08/26 01:57:52;;;;;;;9.98;2.55;;;;;;;;;;5007831;28;20051;-42
2022/08/26 02:00:18;;;;;;;8.13;2.88;;;;;;;;;;5008787;28;20490;-43
2022/08/26 02:02:46;;;;;;;10.17;2.70;;;;;;;;;;5016767;28;20582;-40
2022/08/26 02:05:15;;;;;;;10.65;3.03;;;;;;;;;;5013231;28;20045;-44
2022/08/26 02:07:41;;;;;;;11.52;2.55;;;;;;;;;;5003190;28;20061;-41
2022/08/26 02:10:09;;;;;;;9.00;3.15;;;;;;;;;;5015249;28;20042;-42
2022/08/26 02:12:35;;;;;;;6.78;3.25;;;;;;;;;;4996380;28;20029;-42
2022/08/26 02:15:06;;;;;;;7.50;2.43;;;;;;;;;;5006187;28;20037;-43
2022/08/26 02:17:34;;;;;;;7.10;2.30;;;;;;;;;;5014900;28;20049;-40
2022/08/26 02:20:02;;;;;;;7.95;2.92;;;;;;;;;;5005409;28;20569;-42
2022/08/26 02:22:29;;;;;;;9.60;2.67;;;;;;;;;;5014266;28;20037;-45
2022/08/26 02:24:56;;;;;;;8.75;2.80;;;;;;;;;;5007263;28;20965;-44
2022/08/26 02:27:25;;;;;;;9.03;2.73;;;;;;;;;;5010655;28;20050;-41
2022/08/26 02:29:53;;;;;;;9.45;2.97;;;;;;;;;;5009700;28;20050;-41
2022/08/26 02:32:21;;;;;;;7.95;2.90;;;;;;;;;;5012194;28;20037;-44
2022/08/26 02:34:47;;;;;;;8.80;3.15;;;;;;;;;;5011640;28;20033;-45
2022/08/26 02:37:14;;;;;;;8.82;2.58;;;;;;;;;;5016354;28;20029;-41
2022/08/26 02:39:41;;;;;;;5.97;2.33;;;;;;;;;;4990071;28;20033;-43
2022/08/26 02:42:08;;;;;;;8.77;2.38;;;;;;;;;;5010039;28;20388;-44
2022/08/26 02:44:35;;;;;;;6.85;2.50;;;;;;;;;;5016210;28;20081;-43
2022/08/26 02:47:01;;;;;;;8.55;3.08;;;;;;;;;;5019561;28;20041;-40
2022/08/26 02:49:30;;;;;;;9.20;2.83;;;;;;;;;;5027466;28;20045;-41
2022/08/26 02:51:56;;;;;;;6.90;2.20;;;;;;;;;;5013089;28;20140;-41
2022/08/26 02:54:23;;;;;;;7.78;2.30;;;;;;;;;;5025152;28;20111;-41
2022/08/26 02:56:50;;;;;;;6.72;2.47;;;;;;;;;;5034657;28;20124;-42
2022/08/26 02:59:17;;;;;;;9.45;2.03;;;;;;;;;;5045570;28;20050;-42
2022/08/26 03:01:46;;;;;;;7.13;2.38;;;;;;;;;;5019050;28;20584;-42
2022/08/26 03:04:12;;;;;;;9.93;2.57;;;;;;;;;;5035648;28;20044;-40
2022/08/26 03:06:40;;;;;;;6.93;1.80;;;;;;;;;;5037713;28;20118;-41
2022/08/26 03:09:07;;;;;;;7.85;2.13;;;;;;;;;;5032439;28;20037;-41
2022/08/26 03:11:35;;;;;;;5.97;2.20;;;;;;;;;;5026774;28;20474;-42
2022/08/26 03:14:02;;;;;;;6.40;1.92;;;;;;;;;;5027743;28;20494;-42
2022/08/26 03:16:30;;;;;;;7.20;1.70;;;;;;;;;;5034038;28;20491;-42
2022/08/26 03:18:57;;;;;;;5.75;2.08;;;;;;;;;;5033970;28;20040;-44
2022/08/26 03:21:24;;;;;;;7.47;1.70;;;;;;;;;;5018009;28;20545;-41
2022/08/26 03:23:52;;;;;;;7.18;1.80;;;;;;;;;;5023164;28;20118;-41
2022/08/26 03:26:18;;;;;;;7.15;1.67;;;;;;;;;;5035714;28;20565;-42
2022/08/26 03:31:25;;;;;;;7.88;1.88;;;;;;;;;;5024339;28;20124;-41
2022/08/26 03:33:52;;;;;;;6.40;2.08;;;;;;;;;;5028007;28;20049;-42
2022/08/26 03:36:18;;;;;;;7.00;1.60;;;;;;;;;;5013847;28;20041;-42
2022/08/26 03:38:45;;;;;;;8.73;1.88;;;;;;;;;;5030181;28;20033;-43
2022/08/26 03:41:13;;;;;;;6.40;2.00;;;;;;;;;;5032078;28;20044;-44
2022/08/26 03:43:39;;;;;;;6.43;1.77;;;;;;;;;;5008639;28;20121;-42
2022/08/26 03:46:06;;;;;;;8.63;2.28;;;;;;;;;;5040684;28;20052;-42
2022/08/26 03:48:33;;;;;;;5.60;1.50;;;;;;;;;;5037209;28;20040;-41
2022/08/26 03:50:59;;;;;;;11.02;2.42;;;;;;;;;;5020555;28;20124;-40
2022/08/26 03:53:26;;;;;;;6.17;1.80;;;;;;;;;;5036927;28;20053;-41
2022/08/26 03:55:53;;;;;;;7.32;1.75;;;;;;;;;;5027539;28;20048;-41
2022/08/26 03:58:22;;;;;;;7.07;1.60;;;;;;;;;;5033105;28;20045;-43
2022/08/26 04:00:50;;;;;;;6.57;1.50;;;;;;;;;;5036995;28;20041;-42
2022/08/26 04:03:56;;;;;;;6.65;1.60;;;;;;;;;;5026659;28;20518;-41
2022/08/26 04:06:03;;;;;;;7.23;1.83;;;;;;;;;;5025822;28;20068;-41
2022/08/26 04:08:30;;;;;;;6.00;1.63;;;;;;;;;;5025266;28;20052;-40
2022/08/26 04:10:57;;;;;;;6.30;1.80;;;;;;;;;;5029135;28;20330;-41
2022/08/26 04:13:25;;;;;;;6.55;1.60;;;;;;;;;;5033968;28;20139;-42
2022/08/26 04:15:51;;;;;;;6.45;1.65;;;;;;;;;;5032103;28;20432;-42
2022/08/26 04:18:18;;;;;;;5.63;1.60;;;;;;;;;;5029111;28;20486;-40
2022/08/26 04:20:46;;;;;;;6.07;1.95;;;;;;;;;;5036366;28;20036;-42
2022/08/26 04:23:12;;;;;;;5.38;1.33;;;;;;;;;;5024271;28;20041;-44
2022/08/26 04:25:39;;;;;;;6.05;1.67;;;;;;;;;;5033400;28;20037;-40
2022/08/26 04:28:05;;;;;;;5.68;1.40;;;;;;;;;;5030058;28;20084;-42
2022/08/26 04:30:36;;;;;;;7.57;1.30;;;;;;;;;;5033653;28;20043;-43
2022/08/26 04:33:03;;;;;;;6.72;1.60;;;;;;;;;;5006070;28;20060;-41
2022/08/26 04:35:30;;;;;;;7.22;1.98;;;;;;;;;;5031685;28;20485;-42
2022/08/26 04:37:57;;;;;;;6.55;1.60;;;;;;;;;;5008006;28;20048;-42
2022/08/26 04:40:26;;;;;;;6.00;1.60;;;;;;;;;;5033997;28;20494;-41
2022/08/26 04:42:52;;;;;;;6.13;1.47;;;;;;;;;;5027235;28;20598;-44
2022/08/26 04:45:19;;;;;;;5.07;1.45;;;;;;;;;;5039038;28;20441;-40
2022/08/26 04:47:47;;;;;;;8.13;1.35;;;;;;;;;;5023540;28;20772;-41
2022/08/26 04:50:14;;;;;;;4.68;1.30;;;;;;;;;;5031945;28;20048;-40
2022/08/26 04:52:41;;;;;;;8.43;1.52;;;;;;;;;;5033349;28;20092;-41
2022/08/26 04:55:08;;;;;;;6.93;1.40;;;;;;;;;;5038520;28;20044;-43
2022/08/26 04:57:34;;;;;;;4.95;1.20;;;;;;;;;;5031134;28;20037;-41
2022/08/26 05:00:01;;;;;;;5.15;1.70;;;;;;;;;;5034860;28;20037;-41
2022/08/26 05:02:27;;;;;;;6.20;1.30;;;;;;;;;;5014947;28;20049;-41
2022/08/26 05:04:55;;;;;;;6.80;1.70;;;;;;;;;;5030779;28;20037;-43
2022/08/26 05:07:23;;;;;;;4.73;1.13;;;;;;;;;;5036990;28;20095;-43
2022/08/26 05:09:49;;;;;;;8.73;1.55;;;;;;;;;;5014862;28;20131;-41
2022/08/26 05:12:15;;;;;;;6.28;1.30;;;;;;;;;;5037163;28;20083;-44
2022/08/26 05:14:42;;;;;;;5.97;1.33;;;;;;;;;;5033156;28;20067;-40
2022/08/26 05:17:09;;;;;;;5.68;1.63;;;;;;;;;;5036460;28;20040;-41
2022/08/26 05:19:35;;;;;;;4.63;1.50;;;;;;;;;;5030535;28;20033;-44
2022/08/26 05:22:04;;;;;;;9.02;1.70;;;;;;;;;;5033664;28;20037;-42
2022/08/26 05:24:30;;;;;;;6.05;1.83;;;;;;;;;;5026358;28;20056;-42
2022/08/26 05:26:57;;;;;;;8.75;1.33;;;;;;;;;;5015740;28;20185;-43
2022/08/26 05:29:24;;;;;;;6.13;1.30;;;;;;;;;;5029703;28;20194;-41
2022/08/26 05:31:52;;;;;;;6.33;1.47;;;;;;;;;;5042107;28;20545;-42
2022/08/26 05:34:19;;;;;;;5.13;1.80;;;;;;;;;;5028325;28;21035;-44
2022/08/26 05:36:46;;;;;;;5.57;1.83;;;;;;;;;;5015628;28;20055;-40
2022/08/26 05:39:14;;;;;;;6.72;1.10;;;;;;;;;;5023207;28;20087;-41
2022/08/26 05:41:41;;;;;;;5.38;1.70;;;;;;;;;;5030646;28;20045;-43
2022/08/26 05:44:09;;;;;;;5.07;1.20;;;;;;;;;;5037978;28;20827;-44
2022/08/26 05:46:36;;;;;;;5.13;1.50;;;;;;;;;;5035604;28;20044;-42
2022/08/26 05:49:03;;;;;;;5.85;1.83;;;;;;;;;;5023080;28;20120;-41
2022/08/26 05:51:30;;;;;;;5.78;1.38;;;;;;;;;;5031495;28;20606;-44
2022/08/26 05:53:56;;;;;;;6.40;1.75;;;;;;;;;;5032756;28;20461;-41
2022/08/26 05:56:26;;;;;;;7.03;1.63;;;;;;;;;;5028113;28;20047;-44
2022/08/26 05:58:52;;;;;;;6.85;2.15;;;;;;;;;;5033879;28;20529;-42
2022/08/26 06:01:20;;;;;;;6.93;1.83;;;;;;;;;;5024666;28;20440;-42
2022/08/26 06:03:47;;;;;;;5.97;1.30;;;;;;;;;;5034687;28;20655;-42
2022/08/26 06:06:14;;;;;;;6.03;1.42;;;;;;;;;;5012786;28;20033;-45
2022/08/26 06:08:41;;;;;;;7.13;1.87;;;;;;;;;;5033792;28;20040;-43
2022/08/26 06:11:09;;;;;;;8.25;1.60;;;;;;;;;;5029958;28;20041;-44
2022/08/26 06:13:37;;;;;;;5.22;1.40;;;;;;;;;;5030078;28;20037;-41
2022/08/26 06:16:04;;;;;;;7.50;1.38;;;;;;;;;;5036411;28;20040;-41
2022/08/26 06:18:33;;;;;;;5.28;1.60;;;;;;;;;;5035438;28;20499;-40
2022/08/26 06:21:01;;;;;;;5.43;1.53;;;;;;;;;;5031590;28;20061;-45
2022/08/26 06:26:18;;;;;;;6.07;1.58;;;;;;;;;;4987587;28;20088;-42
2022/08/26 06:28:46;;;;;;;5.93;1.25;;;;;;;;;;5015301;28;20490;-43
2022/08/26 06:31:13;;;;;;;5.45;1.20;;;;;;;;;;5008155;28;20044;-42
2022/08/26 06:33:39;;;;;;;5.10;1.40;;;;;;;;;;5030335;28;20029;-42
2022/08/26 06:36:06;;;;;;;6.32;1.45;;;;;;;;;;5027651;28;20271;-42
2022/08/26 06:38:33;;;;;;;5.53;1.35;;;;;;;;;;5027661;28;20098;-41
2022/08/26 06:40:59;;;;;;;6.40;1.05;;;;;;;;;;5029508;28;20041;-45
2022/08/26 06:43:27;;;;;;;4.95;1.13;;;;;;;;;;5028665;28;20487;-42
2022/08/26 06:46:01;;;;;;;6.27;1.40;;;;;;;;;;5013419;28;20033;-42
2022/08/26 06:48:28;;;;;;;5.25;1.13;;;;;;;;;;5027381;28;20107;-40
2022/08/26 06:51:01;;;;;;;5.38;1.33;;;;;;;;;;5029266;28;20491;-40
2022/08/26 06:53:28;;;;;;;5.47;1.10;;;;;;;;;;5026632;28;20053;-40
2022/08/26 06:55:54;;;;;;;4.75;0.80;;;;;;;;;;5027578;28;20697;-40
2022/08/26 06:58:21;;;;;;;9.60;1.60;;;;;;;;;;5033472;28;20052;-40
2022/08/26 07:00:47;;;;;;;4.45;0.88;;;;;;;;;;5036997;28;20041;-42
2022/08/26 07:03:15;;;;;;;4.57;1.23;;;;;;;;;;5031938;28;20037;-41
2022/08/26 07:05:42;;;;;;;4.50;0.90;;;;;;;;;;5025820;28;20040;-40
2022/08/26 07:08:08;;;;;;;8.63;0.98;;;;;;;;;;5032400;28;20049;-42
2022/08/26 07:10:35;;;;;;;6.63;1.50;;;;;;;;;;5026874;28;20037;-43
2022/08/26 07:13:02;;;;;;;5.22;1.23;;;;;;;;;;5026350;28;20035;-42
2022/08/26 07:15:28;;;;;;;4.95;1.30;;;;;;;;;;5024319;28;20037;-42
2022/08/26 07:17:55;;;;;;;4.93;1.30;;;;;;;;;;5025240;28;20049;-41
2022/08/26 07:20:22;;;;;;;7.25;1.50;;;;;;;;;;5033414;28;20053;-41
2022/08/26 07:22:49;;;;;;;7.63;1.23;;;;;;;;;;5013526;28;20521;-41
2022/08/26 07:25:16;;;;;;;6.15;1.20;;;;;;;;;;5036805;28;20033;-42
2022/08/26 07:27:42;;;;;;;5.82;1.75;;;;;;;;;;5032807;28;20564;-45
2022/08/26 07:30:09;;;;;;;6.85;1.33;;;;;;;;;;5024972;28;20045;-42
2022/08/26 07:32:36;;;;;;;6.68;1.20;;;;;;;;;;5025143;28;20079;-42
2022/08/26 07:35:04;;;;;;;8.13;1.50;;;;;;;;;;5036976;28;20041;-43
2022/08/26 07:37:32;;;;;;;5.43;1.27;;;;;;;;;;5031920;28;20036;-44
2022/08/26 07:39:58;;;;;;;6.93;1.25;;;;;;;;;;5033201;28;20049;-42
2022/08/26 07:42:25;;;;;;;6.30;1.45;;;;;;;;;;5020542;28;20450;-42
2022/08/26 07:44:51;;;;;;;5.07;1.38;;;;;;;;;;5025078;28;20033;-47
2022/08/26 07:47:18;;;;;;;4.70;1.30;;;;;;;;;;5030734;28;20119;-41
2022/08/26 07:49:44;;;;;;;4.97;0.90;;;;;;;;;;5030825;28;20044;-41
2022/08/26 07:52:11;;;;;;;7.45;1.60;;;;;;;;;;5027668;28;20041;-43
2022/08/26 07:54:39;;;;;;;5.25;1.55;;;;;;;;;;5039569;28;20060;-41
2022/08/26 07:57:06;;;;;;;7.05;1.40;;;;;;;;;;5037409;28;20033;-42
2022/08/26 07:59:33;;;;;;;6.10;1.30;;;;;;;;;;5030708;28;20140;-42
2022/08/26 08:02:00;;;;;;;7.80;1.35;;;;;;;;;;5032965;28;20500;-42
2022/08/26 08:04:26;;;;;;;6.22;1.50;;;;;;;;;;5033766;28;20076;-46
2022/08/26 08:06:53;;;;;;;5.30;1.73;;;;;;;;;;5032553;28;20052;-43
2022/08/26 08:09:20;;;;;;;6.07;1.63;;;;;;;;;;5032748;28;20044;-44
2022/08/26 08:11:48;;;;;;;4.60;1.03;;;;;;;;;;5005612;28;20479;-41
2022/08/26 08:14:15;;;;;;;6.18;1.27;;;;;;;;;;4683942;28;10000642;-45
2022/08/26 08:16:42;;;;;;;10.02;2.00;;;;;;;;;;5022541;28;20176;-41
2022/08/26 08:19:08;;;;;;;8.27;1.58;;;;;;;;;;5042724;28;20045;-44
2022/08/26 08:21:35;;;;;;;6.57;1.98;;;;;;;;;;5027159;28;20590;-42
2022/08/26 08:24:01;;;;;;;7.00;1.27;;;;;;;;;;5021436;28;20044;-42
2022/08/26 08:26:28;;;;;;;6.40;1.25;;;;;;;;;;5029145;28;20037;-41
2022/08/26 08:28:57;;;;;;;7.97;1.70;;;;;;;;;;4668177;28;9999636;-44
2022/08/26 08:31:24;;;;;;;5.95;1.55;;;;;;;;;;5004298;28;20063;-42
2022/08/26 08:33:51;;;;;;;6.93;1.67;;;;;;;;;;5019511;28;20127;-41
2022/08/26 08:36:17;;;;;;;8.40;1.50;;;;;;;;;;5006864;28;20509;-41
2022/08/26 08:38:44;;;;;;;6.18;1.42;;;;;;;;;;5013132;28;20045;-44
2022/08/26 08:41:18;;;;;;;10.85;1.50;;;;;;;;;;5011357;28;20037;-41
2022/08/26 08:43:47;;;;;;;6.43;1.38;;;;;;;;;;5020288;28;20118;-43
2022/08/26 08:46:18;;;;;;;5.47;1.20;;;;;;;;;;4997245;28;20041;-41
2022/08/26 08:48:46;;;;;;;5.70;1.58;;;;;;;;;;4988769;28;20603;-41
2022/08/26 08:51:16;;;;;;;4.07;1.05;;;;;;;;;;5010343;28;20126;-49
2022/08/26 08:53:44;;;;;;;6.85;1.58;;;;;;;;;;5006315;28;20049;-41
2022/08/26 08:56:14;;;;;;;8.07;1.92;;;;;;;;;;5003405;28;20559;-41
2022/08/26 08:58:50;;;;;;;7.03;1.50;;;;;;;;;;5010526;28;20083;-41
2022/08/26 09:01:23;;;;;;;7.53;1.33;;;;;;;;;;5010644;28;20045;-42
2022/08/26 09:03:55;;;;;;;7.93;1.40;;;;;;;;;;5018250;28;20307;-42
2022/08/26 09:06:21;;;;;;;4.53;0.80;;;;;;;;;;5013503;28;20052;-42
2022/08/26 09:08:49;;;;;;;8.20;2.40;;;;;;;;;;5006704;28;20179;-42
2022/08/26 09:11:16;;;;;;;7.10;1.83;;;;;;;;;;4995489;28;20041;-42
2022/08/26 09:13:44;;;;;;;6.03;1.00;;;;;;;;;;5016191;28;20036;-41
2022/08/26 09:16:14;;;;;;;8.75;1.40;;;;;;;;;;5000570;28;20041;-42
2022/08/26 09:18:49;;;;;;;5.93;1.10;;;;;;;;;;5009924;28;20044;-42
2022/08/26 09:21:17;;;;;;;5.70;1.27;;;;;;;;;;5014563;28;20033;-44
2022/08/26 09:23:44;;;;;;;6.90;1.60;;;;;;;;;;5011841;28;20447;-41
2022/08/26 09:26:15;;;;;;;6.93;1.15;;;;;;;;;;5006830;28;20380;-42
2022/08/26 09:28:42;;;;;;;7.70;1.15;;;;;;;;;;5008267;28;20471;-42
2022/08/26 09:31:11;;;;;;;5.10;0.93;;;;;;;;;;5009404;28;20510;-42
2022/08/26 09:33:39;;;;;;;8.38;0.85;;;;;;;;;;5015216;28;20052;-42
2022/08/26 09:36:14;;;;;;;4.47;1.17;;;;;;;;;;5014110;28;21231;-43
2022/08/26 09:38:41;;;;;;;6.25;0.80;;;;;;;;;;5008352;28;20246;-45
2022/08/26 09:41:20;;;;;;;4.65;0.95;;;;;;;;;;4975581;23;20675;-42
2022/08/26 09:44:00;;;;;;;3.80;0.90;;;;;;;;;;5017246;28;20052;-42
2022/08/26 09:46:27;;;;;;;4.75;0.80;;;;;;;;;;5016042;28;20045;-42
2022/08/26 09:48:54;;;;;;;6.00;1.10;;;;;;;;;;5016814;28;20102;-41
2022/08/26 09:51:28;;;;;;;4.90;0.77;;;;;;;;;;5021981;28;20544;-43
2022/08/26 09:53:56;;;;;;;5.97;0.95;;;;;;;;;;5014347;28;20033;-43
2022/08/26 09:56:25;;;;;;;5.72;1.35;;;;;;;;;;5029398;28;20094;-42
2022/08/26 09:58:52;;;;;;;6.25;1.17;;;;;;;;;;5013254;28;20045;-41
2022/08/26 10:01:27;;;;;;;6.27;1.10;;;;;;;;;;5026010;28;20056;-47
2022/08/26 10:04:02;;;;;;;4.85;0.82;;;;;;;;;;5018351;28;20132;-43
2022/08/26 10:09:07;;;;;;;4.65;0.60;;;;;;;;;;5025013;22;20086;-41
2022/08/26 10:11:37;;;;;;;7.55;0.93;;;;;;;;;;5023785;28;20047;-42
2022/08/26 10:14:07;;;;;;;8.73;1.20;;;;;;;;;;4972922;23;20498;-47
2022/08/26 10:16:37;;;;;;;5.47;0.88;;;;;;;;;;5004155;28;20048;-43
2022/08/26 10:19:06;;;;;;;4.00;0.75;;;;;;;;;;5006044;28;20049;-45
2022/08/26 10:21:35;;;;;;;3.45;0.80;;;;;;;;;;4981371;28;20052;-47
2022/08/26 10:24:03;;;;;;;5.43;0.70;;;;;;;;;;5015493;28;20049;-44
2022/08/26 10:26:35;;;;;;;4.03;0.50;;;;;;;;;;4988516;28;20281;-47
2022/08/26 10:29:05;;;;;;;3.00;0.40;;;;;;;;;;4660792;28;10000471;-44
2022/08/26 10:31:35;;;;;;;3.63;0.57;;;;;;;;;;5005122;28;20033;-44
2022/08/26 10:34:01;;;;;;;4.72;0.60;;;;;;;;;;5012394;28;20470;-44
2022/08/26 10:39:17;;;;;;;2.72;0.77;;;;;;;;;;4990372;28;20056;-45
2022/08/26 10:41:48;;;;;;;10.82;1.00;;;;;;;;;;5006429;28;20091;-46
2022/08/26 10:44:17;;;;;;;2.50;0.40;;;;;;;;;;4976929;28;20499;-45
2022/08/26 10:46:45;;;;;;;3.97;0.77;;;;;;;;;;4999937;28;20553;-48
2022/08/26 10:49:13;;;;;;;6.38;0.70;;;;;;;;;;5000705;28;20191;-45
2022/08/26 10:51:46;;;;;;;4.07;0.70;;;;;;;;;;5001535;28;20065;-45
2022/08/26 10:54:17;;;;;;;5.13;0.68;;;;;;;;;;4985670;28;20042;-46
2022/08/26 10:56:46;;;;;;;6.90;0.70;;;;;;;;;;4981242;28;20336;-48
2022/08/26 10:59:20;;;;;;;3.00;0.57;;;;;;;;;;5009150;28;20525;-45
2022/08/26 11:01:49;;;;;;;5.35;0.90;;;;;;;;;;5011380;28;20041;-44
2022/08/26 11:04:33;;;;;;;6.25;0.68;;;;;;;;;;5024995;28;20045;-46
2022/08/26 11:07:18;;;;;;;4.40;0.70;;;;;;;;;;5008629;28;20498;-45
2022/08/26 11:09:46;;;;;;;5.27;0.80;;;;;;;;;;5012410;28;20028;-43
2022/08/26 11:12:27;;;;;;;4.68;0.52;;;;;;;;;;5030995;28;20041;-43
2022/08/26 11:14:55;;;;;;;4.70;1.10;;;;;;;;;;5026891;28;20453;-45
2022/08/26 11:17:40;;;;;;;4.75;0.63;;;;;;;;;;5013082;28;20041;-46
2022/08/26 11:20:10;;;;;;;2.33;0.40;;;;;;;;;;4677874;28;10000091;-46
2022/08/26 11:22:37;;;;;;;3.72;0.68;;;;;;;;;;5021460;28;20128;-45
2022/08/26 11:25:08;;;;;;;4.70;0.60;;;;;;;;;;5025063;28;20037;-43
2022/08/26 11:28:02;;;;;;;4.03;0.60;;;;;;;;;;5029005;28;20207;-45
2022/08/26 11:30:48;;;;;;;5.85;0.60;;;;;;;;;;5016464;28;20164;-46
2022/08/26 11:33:34;;;;;;;4.00;0.67;;;;;;;;;;5016754;28;20403;-45
2022/08/26 11:36:02;;;;;;;3.58;0.50;;;;;;;;;;5017404;28;20466;-44
2022/08/26 11:38:29;;;;;;;4.57;0.70;;;;;;;;;;5020325;28;20125;-46
2022/08/26 11:40:59;;;;;;;5.43;1.15;;;;;;;;;;5011141;28;20037;-43
2022/08/26 11:43:27;;;;;;;5.97;0.60;;;;;;;;;;5025751;28;20049;-47
2022/08/26 11:45:59;;;;;;;5.20;0.80;;;;;;;;;;5016121;28;20445;-43
2022/08/26 11:48:29;;;;;;;3.90;0.60;;;;;;;;;;5026012;28;20176;-43
2022/08/26 11:50:57;;;;;;;4.97;0.68;;;;;;;;;;5020716;28;20553;-45
2022/08/26 11:53:26;;;;;;;4.03;0.75;;;;;;;;;;5016179;28;20268;-45
2022/08/26 11:55:53;;;;;;;3.60;0.50;;;;;;;;;;5026227;28;20446;-45
2022/08/26 11:58:21;;;;;;;3.57;0.70;;;;;;;;;;5028430;28;20045;-45
2022/08/26 12:00:50;;;;;;;3.90;0.50;;;;;;;;;;5024424;28;20494;-44
2022/08/26 12:03:18;;;;;;;4.70;0.55;;;;;;;;;;4995348;28;20040;-44
2022/08/26 12:05:46;;;;;;;2.92;0.57;;;;;;;;;;5024503;28;20392;-45
2022/08/26 12:08:15;;;;;;;4.70;0.75;;;;;;;;;;5032082;28;20433;-45
2022/08/26 12:10:43;;;;;;;3.13;0.80;;;;;;;;;;5026875;28;20045;-44
2022/08/26 12:13:17;;;;;;;2.60;0.50;;;;;;;;;;5008503;28;20045;-45
2022/08/26 12:15:51;;;;;;;3.65;0.60;;;;;;;;;;5028990;28;20409;-45
2022/08/26 12:18:18;;;;;;;3.47;0.50;;;;;;;;;;5030042;28;20481;-44
2022/08/26 12:20:50;;;;;;;3.50;0.90;;;;;;;;;;5024181;28;20079;-46
2022/08/26 12:23:26;;;;;;;3.87;0.70;;;;;;;;;;5024957;28;20045;-44
2022/08/26 12:26:03;;;;;;;3.58;0.85;;;;;;;;;;5032952;28;20089;-48
2022/08/26 12:28:30;;;;;;;5.28;0.88;;;;;;;;;;5030035;28;20102;-45
2022/08/26 12:31:01;;;;;;;5.10;1.08;;;;;;;;;;5036405;28;20057;-46
2022/08/26 12:33:27;;;;;;;3.63;0.60;;;;;;;;;;5008304;28;20122;-46
2022/08/26 12:35:55;;;;;;;5.60;0.40;;;;;;;;;;5034804;28;20060;-44
2022/08/26 12:38:22;;;;;;;4.32;0.43;;;;;;;;;;5030753;28;20041;-46
2022/08/26 12:40:49;;;;;;;4.55;0.70;;;;;;;;;;5031273;28;20044;-47
2022/08/26 12:43:31;;;;;;;5.30;0.90;;;;;;;;;;5029110;28;20127;-45
2022/08/26 12:45:59;;;;;;;8.50;1.02;;;;;;;;;;5028598;28;20053;-44
2022/08/26 12:48:26;;;;;;;5.60;0.87;;;;;;;;;;5009709;28;20049;-44
2022/08/26 12:50:53;;;;;;;6.10;0.90;;;;;;;;;;5022412;28;20041;-47
2022/08/26 12:53:21;;;;;;;3.97;0.90;;;;;;;;;;5028158;28;20111;-45
2022/08/26 12:55:49;;;;;;;3.38;0.57;;;;;;;;;;5033184;28;20040;-44
2022/08/26 12:58:21;;;;;;;4.38;0.90;;;;;;;;;;5013941;28;20033;-45
2022/08/26 13:00:49;;;;;;;5.03;0.77;;;;;;;;;;5016382;28;20037;-45
2022/08/26 13:03:30;;;;;;;3.92;0.80;;;;;;;;;;5006939;28;20092;-44
2022/08/26 13:06:08;;;;;;;3.92;0.80;;;;;;;;;;5026233;28;20056;-44
2022/08/26 13:08:34;;;;;;;3.90;1.00;;;;;;;;;;5025546;28;20049;-45
2022/08/26 13:11:03;;;;;;;4.35;0.60;;;;;;;;;;5013031;28;20038;-44
2022/08/26 13:13:30;;;;;;;5.47;0.60;;;;;;;;;;5036555;28;20549;-45
2022/08/26 13:15:56;;;;;;;4.55;0.52;;;;;;;;;;5029975;28;20072;-46
2022/08/26 13:18:24;;;;;;;3.92;0.60;;;;;;;;;;5035545;28;20068;-45
2022/08/26 13:20:52;;;;;;;3.28;0.70;;;;;;;;;;5032662;28;20216;-47
2022/08/26 13:23:19;;;;;;;4.20;0.50;;;;;;;;;;5029523;28;20515;-45
2022/08/26 13:25:45;;;;;;;5.23;0.70;;;;;;;;;;5028475;28;20041;-45
2022/08/26 13:28:12;;;;;;;5.38;0.70;;;;;;;;;;5022080;28;20177;-45
2022/08/26 13:30:39;;;;;;;5.65;0.90;;;;;;;;;;5032228;28;20418;-45
2022/08/26 13:33:06;;;;;;;3.90;0.60;;;;;;;;;;5026829;28;20033;-48
2022/08/26 13:35:33;;;;;;;3.03;0.85;;;;;;;;;;5030971;28;20041;-45
2022/08/26 13:38:01;;;;;;;4.57;0.50;;;;;;;;;;5006163;28;20037;-46
2022/08/26 13:40:27;;;;;;;3.90;0.60;;;;;;;;;;5020174;28;20042;-48
2022/08/26 13:42:54;;;;;;;2.90;0.70;;;;;;;;;;5023325;28;20045;-46
2022/08/26 13:45:20;;;;;;;5.60;0.65;;;;;;;;;;5025363;28;20041;-44
2022/08/26 13:47:47;;;;;;;4.05;0.80;;;;;;;;;;5026564;28;20045;-46
2022/08/26 13:50:14;;;;;;;2.53;0.60;;;;;;;;;;5029186;28;20045;-48
2022/08/26 13:52:40;;;;;;;3.58;0.60;;;;;;;;;;5032231;28;20063;-46
2022/08/26 13:55:09;;;;;;;3.10;0.70;;;;;;;;;;5030412;28;20044;-45
2022/08/26 13:57:37;;;;;;;4.47;0.70;;;;;;;;;;5035803;28;20037;-44
2022/08/26 14:00:04;;;;;;;3.90;0.70;;;;;;;;;;5011316;28;20041;-46
2022/08/26 14:02:30;;;;;;;3.33;0.83;;;;;;;;;;5024797;28;20514;-45
2022/08/26 14:04:57;;;;;;;5.80;0.70;;;;;;;;;;5006697;28;20552;-46
2022/08/26 14:07:23;;;;;;;6.90;1.15;;;;;;;;;;5029034;28;20064;-43
2022/08/26 14:09:50;;;;;;;4.60;0.98;;;;;;;;;;5014029;28;20517;-45
2022/08/26 14:12:18;;;;;;;6.75;1.33;;;;;;;;;;5009990;28;20036;-46
2022/08/26 14:14:45;;;;;;;4.70;0.60;;;;;;;;;;5018229;28;20050;-45
2022/08/26 14:17:12;;;;;;;4.07;0.70;;;;;;;;;;5036173;28;20099;-44
2022/08/26 14:19:39;;;;;;;5.22;0.70;;;;;;;;;;5029603;28;20048;-45
2022/08/26 14:22:06;;;;;;;5.35;1.00;;;;;;;;;;5022550;28;20705;-46
2022/08/26 14:24:33;;;;;;;3.55;0.60;;;;;;;;;;5034956;28;20044;-43
2022/08/26 14:26:59;;;;;;;6.90;0.80;;;;;;;;;;5033657;28;20041;-47
2022/08/26 14:29:27;;;;;;;5.32;0.82;;;;;;;;;;5034959;28;20055;-46
2022/08/26 14:31:55;;;;;;;3.80;1.33;;;;;;;;;;5029833;28;20045;-47
2022/08/26 14:34:22;;;;;;;4.25;0.77;;;;;;;;;;5034000;28;20033;-46
2022/08/26 14:36:48;;;;;;;4.07;0.80;;;;;;;;;;5036305;28;20095;-45
2022/08/26 14:39:15;;;;;;;3.27;0.80;;;;;;;;;;5033651;28;20041;-46
2022/08/26 14:41:44;;;;;;;7.38;1.13;;;;;;;;;;5035942;28;20040;-45
2022/08/26 14:44:12;;;;;;;3.63;0.75;;;;;;;;;;5017631;28;20033;-44
2022/08/26 14:46:41;;;;;;;6.20;1.00;;;;;;;;;;5037358;28;20033;-43
2022/08/26 14:49:08;;;;;;;4.25;1.00;;;;;;;;;;5027724;28;20033;-47
2022/08/26 14:51:35;;;;;;;5.47;1.03;;;;;;;;;;5034256;28;20167;-45
2022/08/26 14:54:14;;;;;;;4.28;0.90;;;;;;;;;;5039106;28;20086;-46
2022/08/26 14:56:43;;;;;;;4.47;0.90;;;;;;;;;;5005256;28;20041;-44
2022/08/26 14:59:10;;;;;;;4.18;0.70;;;;;;;;;;5029903;28;20044;-47
2022/08/26 15:01:36;;;;;;;4.07;0.60;;;;;;;;;;5017700;28;20060;-44